createdAt,value
2017-04-13T00:00:12.469Z,934.23
2017-04-13T00:00:40.831Z,934.24
2017-04-13T00:01:08.892Z,934.24
2017-04-13T00:01:37.183Z,934.22
2017-04-13T00:02:05.625Z,934.24
2017-04-13T00:02:34.073Z,934.2
2017-04-13T00:03:02.216Z,934.25
2017-04-13T00:03:30.734Z,934.21
2017-04-13T00:03:59.720Z,934.19
2017-04-13T00:04:27.929Z,934.23
2017-04-13T00:04:56.065Z,934.2
2017-04-13T00:05:24.351Z,934.19
2017-04-13T00:05:52.643Z,934.23
2017-04-13T00:06:20.988Z,934.19
2017-04-13T00:06:49.284Z,934.2
2017-04-13T00:07:17.588Z,934.15
2017-04-13T00:07:45.798Z,934.17
2017-04-13T00:08:14.469Z,934.17
2017-04-13T00:08:42.672Z,934.21
2017-04-13T00:09:10.858Z,934.18
2017-04-13T00:09:39.135Z,934.25
2017-04-13T00:10:07.452Z,934.24
2017-04-13T00:10:35.675Z,934.19
2017-04-13T00:11:03.917Z,934.2
2017-04-13T00:11:32.176Z,934.26
2017-04-13T00:12:00.398Z,934.24
2017-04-13T00:12:28.644Z,934.2
2017-04-13T00:12:56.807Z,934.25
2017-04-13T00:13:24.987Z,934.26
2017-04-13T00:13:53.299Z,934.24
2017-04-13T00:14:21.498Z,934.31
2017-04-13T00:14:49.735Z,934.32
2017-04-13T00:15:17.828Z,934.31
2017-04-13T00:15:46.135Z,934.35
2017-04-13T00:16:14.242Z,934.31
2017-04-13T00:16:42.538Z,934.28
2017-04-13T00:17:10.685Z,934.33
2017-04-13T00:17:38.858Z,934.28
2017-04-13T00:18:06.944Z,934.32
2017-04-13T00:18:35.370Z,934.33
2017-04-13T00:19:03.615Z,934.32
2017-04-13T00:19:31.869Z,934.31
2017-04-13T00:20:00.182Z,934.36
2017-04-13T00:20:28.433Z,934.31
2017-04-13T00:20:56.443Z,934.34
2017-04-13T00:21:24.756Z,934.31
2017-04-13T00:21:53.046Z,934.42
2017-04-13T00:22:21.173Z,934.4
2017-04-13T00:22:49.452Z,934.4
2017-04-13T00:23:17.951Z,934.43
2017-04-13T00:23:46.206Z,934.47
2017-04-13T00:24:14.577Z,934.46
2017-04-13T00:24:43.031Z,934.44
2017-04-13T00:25:11.195Z,934.46
2017-04-13T00:25:39.432Z,934.46
2017-04-13T00:26:07.814Z,934.45
2017-04-13T00:26:36.056Z,934.47
2017-04-13T00:27:04.205Z,934.41
2017-04-13T00:27:32.512Z,934.41
2017-04-13T00:28:00.785Z,934.38
2017-04-13T00:28:29.190Z,934.41
2017-04-13T00:28:57.340Z,934.39
2017-04-13T00:29:25.669Z,934.43
2017-04-13T00:29:54.097Z,934.42
2017-04-13T00:30:22.352Z,934.47
2017-04-13T00:30:50.549Z,934.45
2017-04-13T00:31:18.594Z,934.41
2017-04-13T00:31:46.832Z,934.46
2017-04-13T00:32:15.118Z,934.4
2017-04-13T00:32:43.309Z,934.41
2017-04-13T00:33:11.658Z,934.44
2017-04-13T00:33:40.151Z,934.44
2017-04-13T00:34:08.275Z,934.41
2017-04-13T00:34:36.361Z,934.45
2017-04-13T00:35:04.568Z,934.45
2017-04-13T00:35:32.763Z,934.43
2017-04-13T00:36:00.876Z,934.45
2017-04-13T00:36:28.888Z,934.44
2017-04-13T00:36:57.207Z,934.46
2017-04-13T00:37:25.589Z,934.45
2017-04-13T00:37:53.853Z,934.45
2017-04-13T00:38:21.843Z,934.43
2017-04-13T00:38:49.844Z,934.38
2017-04-13T00:39:17.779Z,934.43
2017-04-13T00:39:45.821Z,934.45
2017-04-13T00:40:14.194Z,934.38
2017-04-13T00:40:42.435Z,934.38
2017-04-13T00:41:10.602Z,934.39
2017-04-13T00:41:38.897Z,934.39
2017-04-13T00:42:07.365Z,934.41
2017-04-13T00:42:35.609Z,934.33
2017-04-13T00:43:03.731Z,934.35
2017-04-13T00:43:31.899Z,934.3
2017-04-13T00:44:00.089Z,934.28
2017-04-13T00:44:28.442Z,934.28
2017-04-13T00:44:56.459Z,934.28
2017-04-13T00:45:24.681Z,934.29
2017-04-13T00:45:52.892Z,934.24
2017-04-13T00:46:21.205Z,934.23
2017-04-13T00:46:49.654Z,934.25
2017-04-13T00:47:18.019Z,934.26
2017-04-13T00:47:46.373Z,934.27
2017-04-13T00:48:14.586Z,934.24
2017-04-13T00:48:42.874Z,934.29
2017-04-13T00:49:11.311Z,934.3
2017-04-13T00:49:39.732Z,934.31
2017-04-13T00:50:07.947Z,934.31
2017-04-13T00:50:36.015Z,934.31
2017-04-13T00:51:04.279Z,934.37
2017-04-13T00:51:32.445Z,934.36
2017-04-13T00:52:00.544Z,934.33
2017-04-13T00:52:28.898Z,934.41
2017-04-13T00:52:57.159Z,934.38
2017-04-13T00:53:25.310Z,934.38
2017-04-13T00:53:53.842Z,934.4
2017-04-13T00:54:22.121Z,934.38
2017-04-13T00:54:50.382Z,934.36
2017-04-13T00:55:18.702Z,934.34
2017-04-13T00:55:47.005Z,934.35
2017-04-13T00:56:15.288Z,934.37
2017-04-13T00:56:43.353Z,934.35
2017-04-13T00:57:11.625Z,934.34
2017-04-13T00:57:39.746Z,934.35
2017-04-13T00:58:07.907Z,934.35
2017-04-13T00:58:35.939Z,934.36
2017-04-13T00:59:04.159Z,934.35
2017-04-13T00:59:32.410Z,934.33
2017-04-13T01:00:00.621Z,934.36
2017-04-13T01:00:28.775Z,934.3
2017-04-13T01:00:57.041Z,934.34
2017-04-13T01:01:25.294Z,934.31
2017-04-13T01:01:53.435Z,934.3
2017-04-13T01:02:21.829Z,934.33
2017-04-13T01:02:49.996Z,934.28
2017-04-13T01:03:18.248Z,934.3
2017-04-13T01:03:46.408Z,934.29
2017-04-13T01:04:14.680Z,934.31
2017-04-13T01:04:42.860Z,934.31
2017-04-13T01:05:10.987Z,934.33
2017-04-13T01:05:39.194Z,934.32
2017-04-13T01:06:07.667Z,934.27
2017-04-13T01:06:35.985Z,934.3
2017-04-13T01:07:04.356Z,934.31
2017-04-13T01:07:32.560Z,934.29
2017-04-13T01:08:00.882Z,934.31
2017-04-13T01:08:29.194Z,934.29
2017-04-13T01:08:57.446Z,934.33
2017-04-13T01:09:26.126Z,934.32
2017-04-13T01:09:54.523Z,934.34
2017-04-13T01:10:22.734Z,934.29
2017-04-13T01:10:51.018Z,934.31
2017-04-13T01:11:19.235Z,934.27
2017-04-13T01:11:48.168Z,934.32
2017-04-13T01:12:16.280Z,934.31
2017-04-13T01:12:44.388Z,934.31
2017-04-13T01:13:12.608Z,934.28
2017-04-13T01:13:40.634Z,934.32
2017-04-13T01:14:09.157Z,934.28
2017-04-13T01:14:37.537Z,934.31
2017-04-13T01:15:05.975Z,934.32
2017-04-13T01:15:34.013Z,934.33
2017-04-13T01:16:02.280Z,934.32
2017-04-13T01:16:30.303Z,934.31
2017-04-13T01:16:58.620Z,934.3
2017-04-13T01:17:26.784Z,934.3
2017-04-13T01:17:55.109Z,934.31
2017-04-13T01:18:23.444Z,934.25
2017-04-13T01:18:51.781Z,934.31
2017-04-13T01:19:20.097Z,934.27
2017-04-13T01:19:48.535Z,934.28
2017-04-13T01:20:16.721Z,934.26
2017-04-13T01:20:45.019Z,934.24
2017-04-13T01:21:13.043Z,934.26
2017-04-13T01:21:41.263Z,934.24
2017-04-13T01:22:09.430Z,934.27
2017-04-13T01:22:37.661Z,934.24
2017-04-13T01:23:05.783Z,934.25
2017-04-13T01:23:34.064Z,934.22
2017-04-13T01:24:02.454Z,934.23
2017-04-13T01:24:30.622Z,934.23
2017-04-13T01:24:58.942Z,934.25
2017-04-13T01:25:27.187Z,934.24
2017-04-13T01:25:55.216Z,934.24
2017-04-13T01:26:23.378Z,934.23
2017-04-13T01:26:51.653Z,934.25
2017-04-13T01:27:19.985Z,934.25
2017-04-13T01:27:48.307Z,934.26
2017-04-13T01:28:16.628Z,934.26
2017-04-13T01:28:44.786Z,934.24
2017-04-13T01:29:12.965Z,934.24
2017-04-13T01:29:41.268Z,934.26
2017-04-13T01:30:09.384Z,934.28
2017-04-13T01:30:38.106Z,934.24
2017-04-13T01:31:06.374Z,934.25
2017-04-13T01:31:34.636Z,934.27
2017-04-13T01:32:03.628Z,934.24
2017-04-13T01:32:31.919Z,934.27
2017-04-13T01:33:00.070Z,934.25
2017-04-13T01:33:28.505Z,934.26
2017-04-13T01:33:56.782Z,934.25
2017-04-13T01:34:25.083Z,934.26
2017-04-13T01:34:53.317Z,934.26
2017-04-13T01:35:21.452Z,934.23
2017-04-13T01:35:49.732Z,934.25
2017-04-13T01:36:17.939Z,934.22
2017-04-13T01:36:46.431Z,934.19
2017-04-13T01:37:14.570Z,934.24
2017-04-13T01:37:42.920Z,934.21
2017-04-13T01:38:11.184Z,934.2
2017-04-13T01:38:39.509Z,934.19
2017-04-13T01:39:07.836Z,934.18
2017-04-13T01:39:36.065Z,934.21
2017-04-13T01:40:04.261Z,934.17
2017-04-13T01:40:32.493Z,934.17
2017-04-13T01:41:00.837Z,934.16
2017-04-13T01:41:29.074Z,934.16
2017-04-13T01:41:57.265Z,934.17
2017-04-13T01:42:25.548Z,934.14
2017-04-13T01:42:53.799Z,934.15
2017-04-13T01:43:22.091Z,934.17
2017-04-13T01:43:50.202Z,934.15
2017-04-13T01:44:18.319Z,934.15
2017-04-13T01:44:47.263Z,934.16
2017-04-13T01:45:15.435Z,934.15
2017-04-13T01:45:43.739Z,934.12
2017-04-13T01:46:12.123Z,934.13
2017-04-13T01:46:40.268Z,934.19
2017-04-13T01:47:08.445Z,934.15
2017-04-13T01:47:36.670Z,934.15
2017-04-13T01:48:04.895Z,934.18
2017-04-13T01:48:33.334Z,934.31
2017-04-13T01:49:01.495Z,934.14
2017-04-13T01:49:29.865Z,934.17
2017-04-13T01:49:58.156Z,934.19
2017-04-13T01:50:26.301Z,934.22
2017-04-13T01:50:54.647Z,934.21
2017-04-13T01:51:22.621Z,934.22
2017-04-13T01:51:50.914Z,934.19
2017-04-13T01:52:19.385Z,934.22
2017-04-13T01:52:47.742Z,934.19
2017-04-13T01:53:15.980Z,934.23
2017-04-13T01:53:44.211Z,934.2
2017-04-13T01:54:12.475Z,934.2
2017-04-13T01:54:40.828Z,934.25
2017-04-13T01:55:09.227Z,934.21
2017-04-13T01:55:37.579Z,934.2
2017-04-13T01:56:05.730Z,934.25
2017-04-13T01:56:33.771Z,934.26
2017-04-13T01:57:01.920Z,934.28
2017-04-13T01:57:30.217Z,934.25
2017-04-13T01:57:59.297Z,934.22
2017-04-13T01:58:27.648Z,934.25
2017-04-13T01:58:55.939Z,934.26
2017-04-13T01:59:24.318Z,934.23
2017-04-13T01:59:52.706Z,934.21
2017-04-13T02:00:20.870Z,934.31
2017-04-13T02:00:49.223Z,934.23
2017-04-13T02:01:17.498Z,934.24
2017-04-13T02:01:45.723Z,934.21
2017-04-13T02:02:14.022Z,934.27
2017-04-13T02:02:42.359Z,934.21
2017-04-13T02:03:10.726Z,934.22
2017-04-13T02:03:38.971Z,934.25
2017-04-13T02:04:07.305Z,934.24
2017-04-13T02:04:35.663Z,934.28
2017-04-13T02:05:03.899Z,934.29
2017-04-13T02:05:32.231Z,934.27
2017-04-13T02:06:00.366Z,934.3
2017-04-13T02:06:28.555Z,934.27
2017-04-13T02:06:56.863Z,934.3
2017-04-13T02:07:25.185Z,934.26
2017-04-13T02:07:53.542Z,934.24
2017-04-13T02:08:21.682Z,934.26
2017-04-13T02:08:49.795Z,934.32
2017-04-13T02:09:17.999Z,934.25
2017-04-13T02:09:46.229Z,934.24
2017-04-13T02:10:14.477Z,934.31
2017-04-13T02:10:42.931Z,934.26
2017-04-13T02:11:11.329Z,934.26
2017-04-13T02:11:39.566Z,934.27
2017-04-13T02:12:07.897Z,934.28
2017-04-13T02:12:36.280Z,934.28
2017-04-13T02:13:04.354Z,934.3
2017-04-13T02:13:32.406Z,934.25
2017-04-13T02:14:00.685Z,934.28
2017-04-13T02:14:28.960Z,934.21
2017-04-13T02:14:57.106Z,934.21
2017-04-13T02:15:25.342Z,934.18
2017-04-13T02:15:53.838Z,934.24
2017-04-13T02:16:21.908Z,934.21
2017-04-13T02:16:50.299Z,934.19
2017-04-13T02:17:18.295Z,934.17
2017-04-13T02:17:46.557Z,934.13
2017-04-13T02:18:14.732Z,934.13
2017-04-13T02:18:43.042Z,934.14
2017-04-13T02:19:11.270Z,934.13
2017-04-13T02:19:39.454Z,934.1
2017-04-13T02:20:07.609Z,934.17
2017-04-13T02:20:35.914Z,934.16
2017-04-13T02:21:04.429Z,934.17
2017-04-13T02:21:32.716Z,934.18
2017-04-13T02:22:01.058Z,934.16
2017-04-13T02:22:29.242Z,934.12
2017-04-13T02:22:57.476Z,934.12
2017-04-13T02:23:25.721Z,934.08
2017-04-13T02:23:54.013Z,934.16
2017-04-13T02:24:22.265Z,934.11
2017-04-13T02:24:50.534Z,934.14
2017-04-13T02:25:18.731Z,934.11
2017-04-13T02:25:47.218Z,934.12
2017-04-13T02:26:15.382Z,934.07
2017-04-13T02:26:43.602Z,934.11
2017-04-13T02:27:11.893Z,934.13
2017-04-13T02:27:40.204Z,934.08
2017-04-13T02:28:08.327Z,934.12
2017-04-13T02:28:36.587Z,934.08
2017-04-13T02:29:05.022Z,934.11
2017-04-13T02:29:33.231Z,934.12
2017-04-13T02:30:01.464Z,934.13
2017-04-13T02:30:29.692Z,934.13
2017-04-13T02:30:57.806Z,934.08
2017-04-13T02:31:26.089Z,934.17
2017-04-13T02:31:54.328Z,934.11
2017-04-13T02:32:22.369Z,934.12
2017-04-13T02:32:50.453Z,934.13
2017-04-13T02:33:18.957Z,934.14
2017-04-13T02:33:47.297Z,934.11
2017-04-13T02:34:15.786Z,934.15
2017-04-13T02:34:44.046Z,934.13
2017-04-13T02:35:12.312Z,934.19
2017-04-13T02:35:40.514Z,934.14
2017-04-13T02:36:08.716Z,934.2
2017-04-13T02:36:36.850Z,934.15
2017-04-13T02:37:05.196Z,934.18
2017-04-13T02:37:33.341Z,934.14
2017-04-13T02:38:01.490Z,934.14
2017-04-13T02:38:29.708Z,934.13
2017-04-13T02:38:57.994Z,934.14
2017-04-13T02:39:26.046Z,934.14
2017-04-13T02:39:54.260Z,934.08
2017-04-13T02:40:22.479Z,934.12
2017-04-13T02:40:51.190Z,934.05
2017-04-13T02:41:19.368Z,934.11
2017-04-13T02:41:47.515Z,934.09
2017-04-13T02:42:15.640Z,934.14
2017-04-13T02:42:44.060Z,934.11
2017-04-13T02:43:12.184Z,934.07
2017-04-13T02:43:40.405Z,934.08
2017-04-13T02:44:08.413Z,934.11
2017-04-13T02:44:36.725Z,934.11
2017-04-13T02:45:05.066Z,934.09
2017-04-13T02:45:33.459Z,934.12
2017-04-13T02:46:01.567Z,934.1
2017-04-13T02:46:29.742Z,934.06
2017-04-13T02:46:58.054Z,934.12
2017-04-13T02:47:26.286Z,934.07
2017-04-13T02:47:54.433Z,934.2
2017-04-13T02:48:22.704Z,934.11
2017-04-13T02:48:50.951Z,934.08
2017-04-13T02:49:19.246Z,934.13
2017-04-13T02:49:47.608Z,934.11
2017-04-13T02:50:15.882Z,934.09
2017-04-13T02:50:44.228Z,934.13
2017-04-13T02:51:12.454Z,934.08
2017-04-13T02:51:40.733Z,934.1
2017-04-13T02:52:08.989Z,934.11
2017-04-13T02:52:37.239Z,934.1
2017-04-13T02:53:05.434Z,934.11
2017-04-13T02:53:33.488Z,934.09
2017-04-13T02:54:01.738Z,934.08
2017-04-13T02:54:30.164Z,934.12
2017-04-13T02:54:58.287Z,934.13
2017-04-13T02:55:26.494Z,934.14
2017-04-13T02:55:54.741Z,934.13
2017-04-13T02:56:22.999Z,934.16
2017-04-13T02:56:51.304Z,934.14
2017-04-13T02:57:19.383Z,934.13
2017-04-13T02:57:47.625Z,934.13
2017-04-13T02:58:15.928Z,934.13
2017-04-13T02:58:44.211Z,934.15
2017-04-13T02:59:12.356Z,934.13
2017-04-13T02:59:40.732Z,934.19
2017-04-13T03:00:09.123Z,934.17
2017-04-13T03:00:37.355Z,934.18
2017-04-13T03:01:05.566Z,934.18
2017-04-13T03:01:33.813Z,934.19
2017-04-13T03:02:01.927Z,934.2
2017-04-13T03:02:30.227Z,934.18
2017-04-13T03:02:58.521Z,934.2
2017-04-13T03:03:26.712Z,934.24
2017-04-13T03:03:54.684Z,934.21
2017-04-13T03:04:22.926Z,934.22
2017-04-13T03:04:51.089Z,934.24
2017-04-13T03:05:19.337Z,934.2
2017-04-13T03:05:47.478Z,934.21
2017-04-13T03:06:15.650Z,934.19
2017-04-13T03:06:43.897Z,934.21
2017-04-13T03:07:12.101Z,934.19
2017-04-13T03:07:40.325Z,934.21
2017-04-13T03:08:08.597Z,934.21
2017-04-13T03:08:36.521Z,934.16
2017-04-13T03:09:04.764Z,934.14
2017-04-13T03:09:32.838Z,934.18
2017-04-13T03:10:00.988Z,934.13
2017-04-13T03:10:29.159Z,934.16
2017-04-13T03:10:57.570Z,934.14
2017-04-13T03:11:25.701Z,934.2
2017-04-13T03:11:53.849Z,934.12
2017-04-13T03:12:22.016Z,934.12
2017-04-13T03:12:50.235Z,934.14
2017-04-13T03:13:18.376Z,934.16
2017-04-13T03:13:46.543Z,934.11
2017-04-13T03:14:14.721Z,934.14
2017-04-13T03:14:42.856Z,934.1
2017-04-13T03:15:10.995Z,934.09
2017-04-13T03:15:39.074Z,934.1
2017-04-13T03:16:07.399Z,934.1
2017-04-13T03:16:35.461Z,934.12
2017-04-13T03:17:03.664Z,934.11
2017-04-13T03:17:31.738Z,934.13
2017-04-13T03:17:59.836Z,934.15
2017-04-13T03:18:28.113Z,934.14
2017-04-13T03:18:56.392Z,934.13
2017-04-13T03:19:24.639Z,934.18
2017-04-13T03:19:52.907Z,934.18
2017-04-13T03:20:21.035Z,934.18
2017-04-13T03:20:49.086Z,934.19
2017-04-13T03:21:17.413Z,934.2
2017-04-13T03:21:45.700Z,934.19
2017-04-13T03:22:13.881Z,934.19
2017-04-13T03:22:41.854Z,934.21
2017-04-13T03:23:10.113Z,934.22
2017-04-13T03:23:38.324Z,934.21
2017-04-13T03:24:06.576Z,934.19
2017-04-13T03:24:34.701Z,934.25
2017-04-13T03:25:03.009Z,934.21
2017-04-13T03:25:31.317Z,934.18
2017-04-13T03:25:59.582Z,934.2
2017-04-13T03:26:27.882Z,934.19
2017-04-13T03:26:56.150Z,934.2
2017-04-13T03:27:24.460Z,934.17
2017-04-13T03:27:52.716Z,934.17
2017-04-13T03:28:20.783Z,934.17
2017-04-13T03:28:49.030Z,934.16
2017-04-13T03:29:17.304Z,934.13
2017-04-13T03:29:45.601Z,934.18
2017-04-13T03:30:13.779Z,934.13
2017-04-13T03:30:42.128Z,934.16
2017-04-13T03:31:10.339Z,934.15
2017-04-13T03:31:38.557Z,934.19
2017-04-13T03:32:06.804Z,934.14
2017-04-13T03:32:34.929Z,934.14
2017-04-13T03:33:02.990Z,934.17
2017-04-13T03:33:31.252Z,934.16
2017-04-13T03:33:59.426Z,934.12
2017-04-13T03:34:27.645Z,934.16
2017-04-13T03:34:55.751Z,934.18
2017-04-13T03:35:23.985Z,934.12
2017-04-13T03:35:52.019Z,934.16
2017-04-13T03:36:20.314Z,934.14
2017-04-13T03:36:48.510Z,934.13
2017-04-13T03:37:16.661Z,934.14
2017-04-13T03:37:44.885Z,934.13
2017-04-13T03:38:13.157Z,934.1
2017-04-13T03:38:41.372Z,934.1
2017-04-13T03:39:09.621Z,934.07
2017-04-13T03:39:37.880Z,934.09
2017-04-13T03:40:06.032Z,934.05
2017-04-13T03:40:34.256Z,934.06
2017-04-13T03:41:02.328Z,934.06
2017-04-13T03:41:30.502Z,934.06
2017-04-13T03:41:58.727Z,934.07
2017-04-13T03:42:26.983Z,934.06
2017-04-13T03:42:55.017Z,934.05
2017-04-13T03:43:23.068Z,934.05
2017-04-13T03:43:51.332Z,934.07
2017-04-13T03:44:19.551Z,934.04
2017-04-13T03:44:47.713Z,934.05
2017-04-13T03:45:15.846Z,934.07
2017-04-13T03:45:44.084Z,934.05
2017-04-13T03:46:12.438Z,934.04
2017-04-13T03:46:40.640Z,934.08
2017-04-13T03:47:08.789Z,934.03
2017-04-13T03:47:37.051Z,934.01
2017-04-13T03:48:05.136Z,934.06
2017-04-13T03:48:33.373Z,934
2017-04-13T03:49:01.542Z,934.06
2017-04-13T03:49:29.814Z,934.03
2017-04-13T03:49:58.031Z,934.08
2017-04-13T03:50:26.291Z,934.07
2017-04-13T03:50:54.561Z,934.04
2017-04-13T03:51:22.734Z,934.03
2017-04-13T03:51:51.005Z,934.03
2017-04-13T03:52:19.298Z,934
2017-04-13T03:52:47.438Z,934.05
2017-04-13T03:53:15.699Z,934.05
2017-04-13T03:53:43.892Z,934.04
2017-04-13T03:54:12.094Z,934.03
2017-04-13T03:54:40.331Z,934.05
2017-04-13T03:55:08.514Z,934.04
2017-04-13T03:55:37.489Z,934.03
2017-04-13T03:56:05.873Z,934.04
2017-04-13T03:56:34.055Z,934.03
2017-04-13T03:57:02.295Z,934.05
2017-04-13T03:57:30.494Z,934.05
2017-04-13T03:57:58.751Z,934.07
2017-04-13T03:58:26.952Z,934.05
2017-04-13T03:58:55.299Z,934.04
2017-04-13T03:59:23.522Z,934.03
2017-04-13T03:59:51.571Z,934.03
2017-04-13T04:00:20.517Z,934.04
2017-04-13T04:00:48.661Z,934.02
2017-04-13T04:01:16.877Z,933.98
2017-04-13T04:01:45.118Z,934.02
2017-04-13T04:02:13.309Z,934.01
2017-04-13T04:02:41.560Z,934.02
2017-04-13T04:03:09.687Z,934.01
2017-04-13T04:03:37.892Z,934
2017-04-13T04:04:06.140Z,933.99
2017-04-13T04:04:34.294Z,933.99
2017-04-13T04:05:02.435Z,933.99
2017-04-13T04:05:30.634Z,933.95
2017-04-13T04:05:58.813Z,933.97
2017-04-13T04:06:27.027Z,933.99
2017-04-13T04:06:55.220Z,933.94
2017-04-13T04:07:23.163Z,933.98
2017-04-13T04:07:51.323Z,933.86
2017-04-13T04:08:19.571Z,933.87
2017-04-13T04:08:47.684Z,933.87
2017-04-13T04:09:15.842Z,933.89
2017-04-13T04:09:44.092Z,933.83
2017-04-13T04:10:12.325Z,933.86
2017-04-13T04:10:40.598Z,933.86
2017-04-13T04:11:08.758Z,933.82
2017-04-13T04:11:37.024Z,933.84
2017-04-13T04:12:05.278Z,933.84
2017-04-13T04:12:33.482Z,933.79
2017-04-13T04:13:01.554Z,933.79
2017-04-13T04:13:29.771Z,933.79
2017-04-13T04:13:57.950Z,933.78
2017-04-13T04:14:26.130Z,933.78
2017-04-13T04:14:54.622Z,933.75
2017-04-13T04:15:22.625Z,933.71
2017-04-13T04:15:50.772Z,933.75
2017-04-13T04:16:19.104Z,933.81
2017-04-13T04:16:47.273Z,933.76
2017-04-13T04:17:15.535Z,933.7
2017-04-13T04:17:43.796Z,933.72
2017-04-13T04:18:12.387Z,933.71
2017-04-13T04:18:40.640Z,933.69
2017-04-13T04:19:08.819Z,933.7
2017-04-13T04:19:37.006Z,933.69
2017-04-13T04:20:05.243Z,933.72
2017-04-13T04:20:33.495Z,933.7
2017-04-13T04:21:01.654Z,933.73
2017-04-13T04:21:30.099Z,933.69
2017-04-13T04:21:58.332Z,933.65
2017-04-13T04:22:26.496Z,933.7
2017-04-13T04:22:54.650Z,933.67
2017-04-13T04:23:22.760Z,933.74
2017-04-13T04:23:50.866Z,933.7
2017-04-13T04:24:19.090Z,933.71
2017-04-13T04:24:47.330Z,933.72
2017-04-13T04:25:15.466Z,933.7
2017-04-13T04:25:43.705Z,933.71
2017-04-13T04:26:12.066Z,933.71
2017-04-13T04:26:40.327Z,933.72
2017-04-13T04:27:08.580Z,933.71
2017-04-13T04:27:36.737Z,933.69
2017-04-13T04:28:04.928Z,933.7
2017-04-13T04:28:33.138Z,933.71
2017-04-13T04:29:01.276Z,933.73
2017-04-13T04:29:29.400Z,933.7
2017-04-13T04:29:57.589Z,933.75
2017-04-13T04:30:25.779Z,933.73
2017-04-13T04:30:54.013Z,933.68
2017-04-13T04:31:22.553Z,933.7
2017-04-13T04:31:50.708Z,933.75
2017-04-13T04:32:18.840Z,933.75
2017-04-13T04:32:47.387Z,933.73
2017-04-13T04:33:15.509Z,933.76
2017-04-13T04:33:43.586Z,933.73
2017-04-13T04:34:11.743Z,933.69
2017-04-13T04:34:39.770Z,933.71
2017-04-13T04:35:07.946Z,933.75
2017-04-13T04:35:36.171Z,933.74
2017-04-13T04:36:04.397Z,933.75
2017-04-13T04:36:32.937Z,933.73
2017-04-13T04:37:01.158Z,933.7
2017-04-13T04:37:29.762Z,933.69
2017-04-13T04:37:57.721Z,933.69
2017-04-13T04:38:25.888Z,933.71
2017-04-13T04:38:54.024Z,933.7
2017-04-13T04:39:22.188Z,933.72
2017-04-13T04:39:50.336Z,933.68
2017-04-13T04:40:18.385Z,933.66
2017-04-13T04:40:46.625Z,933.67
2017-04-13T04:41:14.657Z,933.65
2017-04-13T04:41:42.892Z,933.64
2017-04-13T04:42:11.045Z,933.64
2017-04-13T04:42:39.208Z,933.65
2017-04-13T04:43:07.363Z,933.64
2017-04-13T04:43:35.520Z,933.66
2017-04-13T04:44:03.690Z,933.59
2017-04-13T04:44:31.736Z,933.59
2017-04-13T04:44:59.854Z,933.59
2017-04-13T04:45:28.029Z,933.63
2017-04-13T04:45:56.520Z,933.61
2017-04-13T04:46:24.622Z,933.6
2017-04-13T04:46:52.653Z,933.58
2017-04-13T04:47:20.716Z,933.58
2017-04-13T04:47:48.925Z,933.57
2017-04-13T04:48:17.138Z,933.55
2017-04-13T04:48:45.336Z,933.56
2017-04-13T04:49:13.397Z,933.59
2017-04-13T04:49:41.671Z,933.57
2017-04-13T04:50:09.866Z,933.52
2017-04-13T04:50:38.043Z,933.52
2017-04-13T04:51:06.192Z,933.53
2017-04-13T04:51:34.327Z,933.5
2017-04-13T04:52:02.474Z,933.52
2017-04-13T04:52:30.507Z,933.52
2017-04-13T04:52:58.773Z,933.51
2017-04-13T04:53:27.006Z,933.51
2017-04-13T04:53:55.096Z,933.52
2017-04-13T04:54:23.227Z,933.52
2017-04-13T04:54:51.437Z,933.51
2017-04-13T04:55:19.644Z,933.48
2017-04-13T04:55:47.730Z,933.5
2017-04-13T04:56:16.020Z,933.46
2017-04-13T04:56:44.200Z,933.47
2017-04-13T04:57:12.380Z,933.42
2017-04-13T04:57:40.528Z,933.38
2017-04-13T04:58:08.707Z,933.38
2017-04-13T04:58:36.753Z,933.36
2017-04-13T04:59:04.915Z,933.37
2017-04-13T04:59:33.128Z,933.35
2017-04-13T05:00:01.390Z,933.34
2017-04-13T05:00:29.556Z,933.36
2017-04-13T05:00:58.116Z,933.34
2017-04-13T05:01:26.232Z,933.35
2017-04-13T05:01:54.486Z,933.34
2017-04-13T05:02:22.740Z,933.32
2017-04-13T05:02:50.941Z,933.34
2017-04-13T05:03:19.038Z,933.34
2017-04-13T05:03:47.295Z,933.33
2017-04-13T05:04:15.448Z,933.36
2017-04-13T05:04:43.403Z,933.36
2017-04-13T05:05:11.580Z,933.36
2017-04-13T05:05:39.675Z,933.38
2017-04-13T05:06:07.903Z,933.36
2017-04-13T05:06:36.064Z,933.36
2017-04-13T05:07:04.189Z,933.38
2017-04-13T05:07:32.328Z,933.37
2017-04-13T05:08:00.617Z,933.37
2017-04-13T05:08:28.885Z,933.39
2017-04-13T05:08:56.957Z,933.4
2017-04-13T05:09:25.120Z,933.39
2017-04-13T05:09:53.363Z,933.37
2017-04-13T05:10:21.609Z,933.36
2017-04-13T05:10:49.930Z,933.35
2017-04-13T05:11:18.096Z,933.37
2017-04-13T05:11:46.383Z,933.37
2017-04-13T05:12:14.582Z,933.35
2017-04-13T05:12:42.601Z,933.33
2017-04-13T05:13:10.910Z,933.33
2017-04-13T05:13:39.009Z,933.36
2017-04-13T05:14:07.265Z,933.37
2017-04-13T05:14:35.409Z,933.32
2017-04-13T05:15:03.559Z,933.32
2017-04-13T05:15:31.784Z,933.35
2017-04-13T05:16:00.032Z,933.31
2017-04-13T05:16:28.301Z,933.33
2017-04-13T05:16:56.464Z,933.31
2017-04-13T05:17:24.759Z,933.3
2017-04-13T05:17:52.993Z,933.3
2017-04-13T05:18:21.215Z,933.28
2017-04-13T05:18:49.344Z,933.28
2017-04-13T05:19:17.476Z,933.32
2017-04-13T05:19:45.595Z,933.31
2017-04-13T05:20:13.836Z,933.33
2017-04-13T05:20:42.077Z,933.33
2017-04-13T05:21:10.445Z,933.34
2017-04-13T05:21:38.674Z,933.35
2017-04-13T05:22:06.623Z,933.32
2017-04-13T05:22:34.788Z,933.33
2017-04-13T05:23:02.932Z,933.33
2017-04-13T05:23:31.178Z,933.28
2017-04-13T05:23:59.234Z,933.28
2017-04-13T05:24:27.419Z,933.28
2017-04-13T05:24:55.687Z,933.25
2017-04-13T05:25:23.731Z,933.23
2017-04-13T05:25:52.232Z,933.23
2017-04-13T05:26:20.336Z,933.24
2017-04-13T05:26:48.564Z,933.22
2017-04-13T05:27:16.793Z,933.23
2017-04-13T05:27:45.039Z,933.22
2017-04-13T05:28:13.282Z,933.23
2017-04-13T05:28:41.598Z,933.26
2017-04-13T05:29:09.745Z,933.23
2017-04-13T05:29:37.985Z,933.24
2017-04-13T05:30:06.127Z,933.24
2017-04-13T05:30:34.476Z,933.26
2017-04-13T05:31:02.514Z,933.25
2017-04-13T05:31:30.766Z,933.28
2017-04-13T05:31:58.921Z,933.29
2017-04-13T05:32:27.167Z,933.28
2017-04-13T05:32:55.455Z,933.31
2017-04-13T05:33:23.517Z,933.28
2017-04-13T05:33:51.692Z,933.31
2017-04-13T05:34:19.795Z,933.28
2017-04-13T05:34:48.126Z,933.29
2017-04-13T05:35:16.262Z,933.27
2017-04-13T05:35:44.401Z,933.28
2017-04-13T05:36:12.834Z,933.24
2017-04-13T05:36:40.941Z,933.23
2017-04-13T05:37:09.208Z,933.21
2017-04-13T05:37:37.438Z,933.24
2017-04-13T05:38:05.665Z,933.2
2017-04-13T05:38:33.742Z,933.18
2017-04-13T05:39:01.884Z,933.21
2017-04-13T05:39:29.849Z,933.18
2017-04-13T05:39:58.021Z,933.18
2017-04-13T05:40:26.261Z,933.19
2017-04-13T05:40:54.437Z,933.17
2017-04-13T05:41:22.738Z,933.18
2017-04-13T05:41:50.854Z,933.15
2017-04-13T05:42:19.128Z,933.13
2017-04-13T05:42:47.365Z,933.13
2017-04-13T05:43:15.567Z,933.15
2017-04-13T05:43:43.728Z,933.13
2017-04-13T05:44:11.899Z,933.15
2017-04-13T05:44:40.074Z,933.17
2017-04-13T05:45:08.295Z,933.12
2017-04-13T05:45:36.522Z,933.15
2017-04-13T05:46:04.797Z,933.14
2017-04-13T05:46:32.944Z,933.13
2017-04-13T05:47:01.130Z,933.15
2017-04-13T05:47:29.379Z,933.13
2017-04-13T05:47:57.507Z,933.11
2017-04-13T05:48:25.727Z,933.13
2017-04-13T05:48:54.021Z,933.07
2017-04-13T05:49:22.298Z,933.09
2017-04-13T05:49:50.573Z,933.06
2017-04-13T05:50:18.738Z,933.07
2017-04-13T05:50:46.863Z,933.06
2017-04-13T05:51:14.767Z,933.02
2017-04-13T05:51:42.887Z,933.03
2017-04-13T05:52:11.167Z,933.06
2017-04-13T05:52:39.365Z,933.03
2017-04-13T05:53:07.586Z,933.02